.
WxDataArchive / Data Records for 2008-05-07
2008-05-06 May 2008 2008-05-08

Data Records for Wednesday, 07 May 2008

Time	Temp	Chill	HIndex	Humid	Dewpt	 Wind 	HiWind	WindDir	Rain 	Barom 
-----	----	-----	------	-----	-----	------	------	-------	-----	----- 
00:00	63.5	63.5	63.5	62	50.2	0	1	135	0.00	29.802 
00:05	63.5	63.5	63.5	62	50.2	0	1	135	0.00	29.803 
00:10	63.5	63.5	63.5	61	49.8	0	1	135	0.00	29.804 
00:15	63.4	63.4	63.4	62	50.1	0	0	---	0.00	29.808 
00:20	63.4	63.4	63.4	62	50.1	0	1	135	0.00	29.807 
00:25	63.2	63.2	63.2	62	50.0	0	1	135	0.00	29.808 
00:30	63.2	63.2	63.2	59	48.6	0	1	135	0.00	29.806 
00:35	63.5	63.5	63.5	57	48.0	0	3	292	0.00	29.804 
00:40	63.9	63.9	63.9	57	48.4	0	2	292	0.00	29.800 
00:45	63.9	63.9	63.9	55	47.4	0	2	292	0.00	29.800 
00:50	64.0	64.0	64.0	55	47.5	0	3	292	0.00	29.799 
00:55	64.2	64.2	64.2	54	47.2	0	2	270	0.00	29.796 
01:00	64.0	64.0	64.0	54	47.0	0	1	270	0.00	29.793 
01:05	63.9	63.9	63.9	54	46.9	0	2	270	0.00	29.787 
01:10	63.9	63.9	63.9	54	46.9	0	1	270	0.00	29.786 
01:15	63.9	63.9	63.9	54	46.9	1	2	270	0.00	29.784 
01:20	63.9	63.9	63.9	54	46.9	0	2	248	0.00	29.785 
01:25	64.0	64.0	64.0	54	47.0	0	4	248	0.00	29.790 
01:30	64.0	64.0	64.0	54	47.0	0	2	248	0.00	29.788 
01:35	64.0	64.0	64.0	55	47.5	0	3	248	0.00	29.786 
01:40	64.0	64.0	64.0	54	47.0	0	2	248	0.00	29.784 
01:45	63.9	63.9	63.9	55	47.4	0	2	248	0.00	29.783 
01:50	63.9	63.9	63.9	56	47.9	0	2	248	0.00	29.782 
01:55	63.7	63.7	63.7	57	48.2	0	1	248	0.00	29.782 
02:00	63.4	63.4	63.4	58	48.4	0	0	---	0.00	29.782 
02:05	63.2	63.2	63.2	59	48.6	0	1	248	0.00	29.783 
02:10	62.9	62.9	62.9	60	48.8	0	1	248	0.00	29.783 
02:15	62.6	62.6	62.6	60	48.5	0	4	248	0.00	29.781 
02:20	62.4	62.4	62.4	61	48.8	0	1	248	0.00	29.780 
02:25	62.3	62.3	62.3	61	48.7	0	2	248	0.00	29.781 
02:30	62.3	62.3	62.3	61	48.7	0	1	248	0.00	29.783 
02:35	62.3	62.3	62.3	62	49.1	0	1	248	0.00	29.783 
02:40	62.1	62.1	62.1	62	48.9	0	1	248	0.00	29.782 
02:45	62.1	62.1	62.1	62	48.9	0	1	248	0.00	29.782 
02:50	62.0	62.0	62.0	63	49.3	0	1	248	0.00	29.781 
02:55	61.8	61.8	61.8	64	49.5	0	2	248	0.00	29.781 
03:00	61.8	61.8	61.8	64	49.5	0	1	248	0.00	29.780 
03:05	61.8	61.8	61.8	64	49.5	0	2	248	0.01	29.784 
03:10	62.0	62.0	62.0	64	49.7	0	2	248	0.00	29.777 
03:15	62.1	62.1	62.1	64	49.8	0	2	248	0.00	29.774 
03:20	62.1	62.1	62.1	64	49.8	0	1	248	0.00	29.773 
03:25	62.0	62.0	62.0	65	50.1	0	0	---	0.00	29.773 
03:30	61.6	61.6	61.6	65	49.7	0	1	248	0.00	29.772 
03:35	61.5	61.5	61.5	65	49.6	0	1	248	0.00	29.772 
03:40	61.5	61.5	61.5	66	50.0	0	3	270	0.00	29.774 
03:45	61.3	61.3	61.3	66	49.8	0	1	270	0.00	29.774 
03:50	61.0	61.0	61.0	67	50.0	0	2	270	0.00	29.775 
03:55	60.7	60.7	60.7	68	50.1	0	1	270	0.00	29.775 
04:00	60.5	60.5	60.5	68	49.9	0	1	270	0.00	29.774 
04:05	60.2	60.2	60.2	69	50.0	0	1	270	0.00	29.777 
04:10	60.1	60.1	60.1	69	49.9	0	1	270	0.00	29.776 
04:15	59.9	59.9	59.9	70	50.1	0	1	270	0.00	29.777 
04:20	59.8	59.8	59.8	71	50.4	0	2	270	0.00	29.777 
04:25	59.5	59.5	59.5	71	50.1	0	1	270	0.00	29.775 
04:30	59.3	59.3	59.3	72	50.3	0	0	---	0.00	29.774 
04:35	59.2	59.2	59.2	73	50.5	0	0	---	0.00	29.772 
04:40	58.9	58.9	58.9	73	50.3	0	0	---	0.00	29.769 
04:45	58.7	58.7	58.7	74	50.4	0	0	---	0.00	29.765 
04:50	58.7	58.7	58.7	75	50.8	0	1	270	0.00	29.765 
04:55	58.7	58.7	58.7	75	50.8	0	0	---	0.00	29.762 
05:00	58.7	58.7	58.7	76	51.2	0	0	---	0.00	29.761 
05:05	58.7	58.7	58.7	76	51.2	0	0	---	0.00	29.754 
05:10	58.7	58.7	58.7	77	51.5	0	0	---	0.00	29.749 
05:15	58.7	58.7	58.7	77	51.5	0	0	---	0.00	29.746 
05:20	58.7	58.7	58.7	77	51.5	0	1	270	0.00	29.743 
05:25	58.9	58.9	58.9	77	51.7	0	1	270	0.00	29.742 
05:30	59.0	59.0	59.0	77	51.8	0	1	270	0.00	29.743 
05:35	59.3	59.3	59.3	77	52.1	0	2	270	0.00	29.744 
05:40	59.5	59.5	59.5	77	52.3	0	2	270	0.00	29.741 
05:45	59.8	59.8	59.8	77	52.6	0	2	248	0.00	29.741 
05:50	59.9	59.9	59.9	77	52.7	0	1	248	0.00	29.741 
05:55	60.1	60.1	60.1	77	52.9	0	1	248	0.00	29.740 
06:00	60.2	60.2	60.2	77	53.0	0	1	248	0.00	29.739 
06:05	60.4	60.4	60.4	76	52.8	0	2	248	0.00	29.736 
06:10	60.5	60.5	60.5	76	52.9	0	1	248	0.00	29.738 
06:15	60.7	60.7	60.7	76	53.1	0	3	248	0.00	29.739 
06:20	60.9	60.9	60.9	75	52.9	0	1	248	0.00	29.741 
06:25	61.2	61.2	61.2	74	52.8	1	4	248	0.00	29.742 
06:30	61.3	61.3	61.3	74	52.9	0	1	248	0.00	29.742 
06:35	61.5	61.5	61.5	74	53.1	0	2	248	0.00	29.742 
06:40	61.5	61.5	61.5	74	53.1	0	2	248	0.00	29.741 
06:45	61.6	61.6	61.6	73	52.9	0	2	248	0.00	29.741 
06:50	61.8	61.8	61.8	73	53.0	1	3	248	0.00	29.739 
06:55	61.8	61.8	61.8	74	53.4	0	1	68	0.00	29.741 
07:00	62.0	62.0	62.0	73	53.2	1	5	248	0.00	29.738 
07:05	62.1	62.1	62.1	73	53.3	1	3	292	0.00	29.739 
07:10	62.1	62.1	62.1	73	53.3	0	2	292	0.00	29.731 
07:15	62.3	62.3	62.3	72	53.2	0	2	90	0.00	29.731 
07:20	62.3	62.3	62.3	73	53.5	0	2	90	0.00	29.729 
07:25	62.3	62.3	62.3	73	53.5	0	2	112	0.00	29.725 
07:30	62.3	62.3	62.3	72	53.2	1	3	112	0.00	29.718 
07:35	62.4	62.4	62.4	71	52.9	1	3	68	0.00	29.718 
07:40	62.6	62.6	62.6	70	52.7	1	2	68	0.00	29.714 
07:45	62.7	62.7	62.7	69	52.4	1	6	90	0.00	29.711 
07:50	63.1	63.1	63.1	68	52.4	1	4	292	0.00	29.712 
07:55	63.4	63.4	63.4	66	51.8	1	5	248	0.00	29.715 
08:00	63.5	63.5	63.5	65	51.5	1	4	292	0.00	29.719 
08:05	63.5	63.5	63.5	65	51.5	2	4	90	0.00	29.714 
08:10	63.7	63.7	63.7	65	51.7	1	3	248	0.00	29.714 
08:15	63.7	63.7	63.7	65	51.7	1	3	90	0.00	29.712 
08:20	63.9	63.9	63.9	63	51.1	1	4	158	0.00	29.710 
08:25	64.2	64.2	64.2	62	50.9	1	7	90	0.00	29.710 
08:30	64.7	64.7	64.7	61	50.9	2	7	112	0.00	29.708 
08:35	65.0	65.0	65.0	61	51.2	1	5	292	0.00	29.704 
08:40	65.3	65.3	65.3	60	51.1	2	5	45	0.00	29.701 
08:45	65.8	65.8	65.8	60	51.5	2	5	68	0.00	29.698 
08:50	66.0	66.0	66.0	59	51.3	2	6	90	0.00	29.697 
08:55	66.4	66.4	66.4	59	51.6	2	10	248	0.00	29.696 
09:00	66.6	66.6	66.6	58	51.4	2	10	45	0.00	29.692 
09:05	66.8	66.8	66.8	56	50.6	3	16	292	0.00	29.680 
09:10	66.8	66.8	66.8	56	50.6	4	11	248	0.00	29.683 
09:15	66.4	66.4	66.4	57	50.7	1	6	248	0.00	29.679 
09:20	66.3	66.3	66.3	56	50.1	2	12	225	0.00	29.683 
09:25	66.0	66.0	66.0	58	50.8	3	9	248	0.00	29.680 
09:30	65.8	65.8	65.8	58	50.6	4	10	248	0.00	29.680 
09:35	66.0	66.0	66.0	58	50.8	2	7	248	0.00	29.679 
09:40	66.1	66.1	66.1	59	51.3	3	11	248	0.00	29.680 
09:45	65.5	65.5	65.5	62	52.1	3	10	270	0.00	29.675 
09:50	64.8	64.8	64.8	65	52.8	3	7	248	0.00	29.676 
09:55	64.7	64.7	64.7	65	52.7	3	7	248	0.00	29.674 
10:00	64.5	64.5	64.5	65	52.5	3	7	248	0.00	29.668 
10:05	64.3	64.3	64.3	67	53.1	2	7	270	0.00	29.671 
10:10	63.9	63.9	63.9	68	53.1	1	6	248	0.00	29.668 
10:15	63.9	63.9	63.9	67	52.7	1	5	248	0.00	29.667 
10:20	64.2	64.2	64.2	66	52.6	2	6	270	0.00	29.662 
10:25	64.7	64.7	64.7	66	53.1	1	6	248	0.00	29.656 
10:30	65.2	65.2	65.2	63	52.3	2	6	90	0.00	29.653 
10:35	66.0	66.0	66.0	61	52.2	3	10	248	0.00	29.653 
10:40	66.4	66.4	66.4	61	52.5	2	7	270	0.00	29.651 
10:45	66.8	66.8	66.8	58	51.5	3	7	270	0.00	29.647 
10:50	67.1	67.1	67.1	59	52.3	3	7	248	0.00	29.643 
10:55	67.4	67.4	67.4	58	52.1	4	10	270	0.00	29.639 
11:00	67.6	67.6	67.6	57	51.8	3	7	270	0.00	29.635 
11:05	67.4	67.4	67.4	58	52.1	3	7	248	0.00	29.631 
11:10	67.3	67.3	67.3	59	52.5	3	10	248	0.00	29.633 
11:15	66.9	66.9	66.9	60	52.6	3	11	248	0.00	29.632 
11:20	66.3	66.3	66.3	63	53.3	4	12	248	0.00	29.629 
11:25	66.1	66.1	66.1	63	53.1	2	6	248	0.00	29.620 
11:30	66.4	66.4	66.4	62	53.0	2	6	225	0.00	29.616 
11:35	66.6	66.6	66.6	61	52.7	3	9	248	0.00	29.613 
11:40	66.8	66.8	66.8	61	52.9	2	6	270	0.00	29.612 
11:45	66.9	66.9	66.9	61	53.0	2	6	225	0.00	29.606 
11:50	67.1	67.1	67.1	62	53.6	2	5	248	0.00	29.604 
11:55	67.3	67.3	67.3	61	53.4	2	7	248	0.00	29.606 
12:00	67.3	67.3	67.3	61	53.4	2	9	248	0.00	29.611 
12:05	67.1	67.1	67.1	62	53.6	3	11	248	0.00	29.616 
12:10	66.8	66.8	66.8	63	53.8	2	7	248	0.00	29.614 
12:15	66.3	66.3	66.3	68	55.4	3	6	248	0.01	29.615 
12:20	64.8	64.8	64.8	73	55.9	3	9	248	0.01	29.613 
12:25	64.2	64.2	64.2	77	56.8	1	4	248	0.00	29.613 
12:30	64.2	64.2	64.2	78	57.2	1	4	248	0.00	29.612 
12:35	64.5	64.5	64.5	74	56.0	2	6	225	0.00	29.605 
12:40	65.2	65.2	65.2	71	55.6	3	10	248	0.00	29.608 
12:45	65.5	65.5	65.5	71	55.8	2	6	248	0.00	29.604 
12:50	65.6	65.6	65.6	70	55.5	1	4	270	0.00	29.606 
12:55	65.6	65.6	65.6	71	55.9	1	5	248	0.00	29.605 
13:00	65.8	65.8	65.8	69	55.3	2	5	270	0.00	29.604 
13:05	66.0	66.0	66.0	70	55.9	2	9	270	0.00	29.613 
13:10	65.3	65.3	65.3	72	56.0	2	5	248	0.00	29.608 
13:15	65.2	65.2	65.2	73	56.3	1	4	225	0.00	29.608 
13:20	65.3	65.3	65.3	72	56.0	2	6	248	0.00	29.608 
13:25	65.5	65.5	65.5	71	55.8	1	5	248	0.00	29.605 
13:30	65.8	65.8	65.8	70	55.7	2	8	248	0.01	29.605 
13:35	65.8	65.8	65.8	70	55.7	4	15	248	0.00	29.607 
13:40	65.8	65.8	65.8	71	56.1	4	19	248	0.00	29.605 
13:45	65.8	65.8	65.8	71	56.1	3	9	248	0.00	29.610 
13:50	65.5	65.5	65.5	72	56.2	2	7	248	0.00	29.614 
13:55	64.7	64.7	64.7	77	57.3	1	5	270	0.00	29.615 
14:00	63.7	63.7	63.7	79	57.1	3	10	248	0.00	29.614 
14:05	63.2	63.2	63.2	80	56.9	5	11	248	0.01	29.610 
14:10	63.4	63.4	63.4	79	56.8	4	10	248	0.00	29.607 
14:15	63.5	63.5	63.5	79	56.9	4	9	270	0.00	29.604 
14:20	63.7	63.7	63.7	80	57.4	2	9	248	0.00	29.603 
14:25	63.9	63.9	63.9	80	57.6	2	6	248	0.00	29.603 
14:30	64.0	64.0	64.0	79	57.4	2	7	225	0.00	29.602 
14:35	64.0	64.0	64.0	79	57.4	3	9	248	0.00	29.602 
14:40	64.0	64.0	64.0	79	57.4	2	7	248	0.00	29.599 
14:45	64.2	64.2	64.2	80	57.9	1	6	248	0.00	29.601 
14:50	63.9	63.9	63.9	81	57.9	2	5	248	0.00	29.602 
14:55	63.4	63.4	63.4	83	58.1	2	6	270	0.00	29.604 
15:00	62.7	62.7	62.7	85	58.1	2	5	248	0.01	29.607 
15:05	62.4	62.4	62.4	88	58.8	1	2	248	0.01	29.607 
15:10	62.1	62.1	62.1	89	58.8	1	3	270	0.01	29.608 
15:15	61.8	61.8	61.8	90	58.8	1	3	248	0.00	29.608 
15:20	61.8	61.8	61.8	91	59.1	1	4	225	0.00	29.607 
15:25	61.8	61.8	61.8	92	59.4	1	3	248	0.01	29.608 
15:30	62.0	62.0	62.0	92	59.6	1	4	248	0.00	29.608 
15:35	62.0	62.0	62.0	92	59.6	1	3	248	0.01	29.608 
15:40	62.0	62.0	62.0	93	59.9	1	5	248	0.01	29.610 
15:45	62.0	62.0	62.0	93	59.9	1	5	248	0.01	29.610 
15:50	61.8	61.8	61.8	93	59.8	1	4	270	0.00	29.608 
15:55	61.8	61.8	61.8	93	59.8	0	2	270	0.00	29.610 
16:00	61.8	61.8	61.8	93	59.8	0	2	270	0.00	29.614 
16:05	61.8	61.8	61.8	94	60.1	0	2	270	0.01	29.619 
16:10	61.8	61.8	61.8	94	60.1	0	2	248	0.00	29.617 
16:15	61.8	61.8	61.8	94	60.1	1	4	248	0.01	29.611 
16:20	61.8	61.8	61.8	94	60.1	1	3	270	0.00	29.609 
16:25	61.8	61.8	61.8	94	60.1	1	5	248	0.00	29.611 
16:30	61.8	61.8	61.8	94	60.1	1	6	248	0.00	29.610 
16:35	62.0	62.0	62.0	94	60.2	1	5	270	0.01	29.611 
16:40	62.0	62.0	62.0	94	60.2	1	5	248	0.00	29.614 
16:45	62.0	62.0	62.0	94	60.2	1	4	248	0.00	29.615 
16:50	62.0	62.0	62.0	94	60.2	1	6	270	0.00	29.612 
16:55	62.0	62.0	62.0	94	60.2	2	7	248	0.00	29.616 
17:00	62.0	62.0	62.0	94	60.2	2	6	270	0.00	29.615 
17:05	62.0	62.0	62.0	94	60.2	2	5	292	0.00	29.618 
17:10	62.0	62.0	62.0	94	60.2	1	4	248	0.00	29.615 
17:15	61.8	61.8	61.8	94	60.1	3	9	248	0.00	29.615 
17:20	61.8	61.8	61.8	94	60.1	3	11	225	0.00	29.614 
17:25	61.8	61.8	61.8	94	60.1	2	5	270	0.00	29.617 
17:30	61.8	61.8	61.8	94	60.1	1	3	248	0.00	29.612 
17:35	61.8	61.8	61.8	94	60.1	1	7	248	0.00	29.610 
17:40	61.8	61.8	61.8	94	60.1	1	5	248	0.00	29.609 
17:45	61.8	61.8	61.8	94	60.1	2	7	248	0.00	29.610 
17:50	61.8	61.8	61.8	94	60.1	2	5	248	0.00	29.612 
17:55	61.8	61.8	61.8	94	60.1	1	4	248	0.00	29.613 
18:00	61.8	61.8	61.8	94	60.1	1	6	270	0.00	29.611 
18:05	61.8	61.8	61.8	93	59.8	2	6	225	0.00	29.608 
18:10	62.0	62.0	62.0	93	59.9	1	6	248	0.00	29.610 
18:15	62.0	62.0	62.0	93	59.9	1	6	248	0.00	29.609 
18:20	62.0	62.0	62.0	93	59.9	0	3	248	0.00	29.610 
18:25	62.0	62.0	62.0	93	59.9	1	4	248	0.00	29.614 
18:30	62.0	62.0	62.0	93	59.9	1	5	248	0.00	29.618 
18:35	62.0	62.0	62.0	93	59.9	1	4	248	0.00	29.620 
18:40	62.0	62.0	62.0	93	59.9	1	6	248	0.00	29.621 
18:45	62.0	62.0	62.0	93	59.9	1	3	248	0.00	29.624 
18:50	62.0	62.0	62.0	93	59.9	1	3	248	0.00	29.630 
18:55	62.0	62.0	62.0	93	59.9	0	1	248	0.01	29.636 
19:00	61.2	61.2	61.2	92	58.9	1	3	315	0.02	29.639 
19:05	60.4	60.4	60.4	92	58.1	0	2	292	0.03	29.638 
19:10	60.1	60.1	60.1	93	58.1	0	2	292	0.01	29.641 
19:15	59.9	59.9	59.9	93	57.9	0	2	292	0.01	29.638 
19:20	59.8	59.8	59.8	93	57.8	0	1	292	0.01	29.637 
19:25	59.6	59.6	59.6	94	57.9	0	1	292	0.02	29.641 
19:30	59.5	59.5	59.5	94	57.8	0	1	292	0.03	29.638 
19:35	59.5	59.5	59.5	94	57.8	0	1	292	0.01	29.637 
19:40	59.3	59.3	59.3	94	57.6	0	1	292	0.02	29.637 
19:45	59.3	59.3	59.3	95	57.9	0	1	292	0.01	29.638 
19:50	59.3	59.3	59.3	95	57.9	0	0	---	0.01	29.636 
19:55	59.3	59.3	59.3	95	57.9	0	1	292	0.01	29.636 
20:00	59.3	59.3	59.3	95	57.9	0	1	292	0.00	29.635 
20:05	59.3	59.3	59.3	95	57.9	0	0	---	0.00	29.631 
20:10	59.3	59.3	59.3	95	57.9	0	0	---	0.00	29.631 
20:15	59.3	59.3	59.3	95	57.9	0	0	---	0.00	29.628 
20:20	59.3	59.3	59.3	95	57.9	0	0	---	0.01	29.623 
20:25	59.3	59.3	59.3	96	58.2	0	0	---	0.00	29.625 
20:30	59.3	59.3	59.3	96	58.2	0	1	292	0.00	29.621 
20:35	59.3	59.3	59.3	96	58.2	0	1	292	0.00	29.624 
20:40	59.3	59.3	59.3	96	58.2	0	0	---	0.00	29.627 
20:45	59.3	59.3	59.3	96	58.2	0	0	---	0.00	29.629 
20:50	59.3	59.3	59.3	96	58.2	0	0	---	0.00	29.633 
20:55	59.3	59.3	59.3	96	58.2	0	0	---	0.00	29.635 
21:00	59.5	59.5	59.5	96	58.4	0	0	---	0.00	29.634 
21:05	59.5	59.5	59.5	96	58.4	0	0	---	0.00	29.636 
21:10	59.3	59.3	59.3	96	58.2	0	0	---	0.00	29.636 
21:15	59.3	59.3	59.3	96	58.2	0	0	---	0.00	29.636 
21:20	59.3	59.3	59.3	96	58.2	0	0	---	0.00	29.635 
21:25	59.3	59.3	59.3	96	58.2	0	0	---	0.00	29.634 
21:30	59.5	59.5	59.5	96	58.4	0	0	---	0.00	29.633 
21:35	59.5	59.5	59.5	96	58.4	0	0	---	0.00	29.634 
21:40	59.3	59.3	59.3	96	58.2	0	0	---	0.00	29.635 
21:45	59.3	59.3	59.3	96	58.2	0	0	---	0.00	29.635 
21:50	59.3	59.3	59.3	96	58.2	0	0	---	0.00	29.635 
21:55	59.2	59.2	59.2	96	58.1	0	0	---	0.00	29.636 
22:00	59.2	59.2	59.2	96	58.1	0	0	---	0.00	29.636 
22:05	59.0	59.0	59.0	96	57.9	0	0	---	0.00	29.635 
22:10	59.0	59.0	59.0	96	57.9	0	0	---	0.00	29.639 
22:15	59.0	59.0	59.0	96	57.9	0	0	---	0.00	29.638 
22:20	59.0	59.0	59.0	96	57.9	0	0	---	0.00	29.640 
22:25	59.0	59.0	59.0	96	57.9	0	0	---	0.00	29.639 
22:30	58.9	58.9	58.9	96	57.8	0	0	---	0.00	29.638 
22:35	58.9	58.9	58.9	96	57.8	0	0	---	0.00	29.639 
22:40	58.7	58.7	58.7	96	57.6	0	0	---	0.00	29.638 
22:45	58.7	58.7	58.7	96	57.6	0	0	---	0.00	29.638 
22:50	58.7	58.7	58.7	96	57.6	0	0	---	0.00	29.637 
22:55	58.7	58.7	58.7	96	57.6	0	0	---	0.00	29.638 
23:00	58.7	58.7	58.7	96	57.6	0	0	---	0.00	29.641 
23:05	58.7	58.7	58.7	96	57.6	0	0	---	0.00	29.644 
23:10	58.7	58.7	58.7	96	57.6	0	0	---	0.00	29.645 
23:15	58.7	58.7	58.7	96	57.6	0	0	---	0.00	29.648 
23:20	58.7	58.7	58.7	96	57.6	0	0	---	0.00	29.650 
23:25	58.7	58.7	58.7	96	57.6	0	0	---	0.00	29.650 
23:30	58.7	58.7	58.7	96	57.6	0	1	292	0.00	29.650 
23:35	58.9	58.9	58.9	96	57.8	0	0	---	0.00	29.651 
23:40	58.9	58.9	58.9	97	58.0	0	1	292	0.00	29.651 
23:45	59.0	59.0	59.0	97	58.1	0	1	292	0.00	29.651 
23:50	59.0	59.0	59.0	97	58.1	0	1	292	0.00	29.651 
23:55	59.0	59.0	59.0	97	58.1	0	0	---	0.00	29.652 

CoCoRaHS
IN-AL-39
A2 Web Hosting
Creative Commons License
GoDaddy
Look for:

loaded 2017-12-13 15:32:56 • last modified 2010-11-18 10:43:29
Privacy PolicyDisclaimer
• wx.awcolley.com is powered by PmWiki v.2002016 •
• all content (unless otherwise noted) © 2017 A W Colley